createdAt,value
2022-08-31T00:01:47.682Z,46.15
2022-08-31T00:03:52.346Z,46.21
2022-08-31T00:05:57.004Z,46.36
2022-08-31T00:08:01.626Z,46.39
2022-08-31T00:10:06.250Z,46.49
2022-08-31T00:12:12.201Z,46.47
2022-08-31T00:14:18.086Z,46.41
2022-08-31T00:16:22.978Z,46.45
2022-08-31T00:18:27.603Z,46.4
2022-08-31T00:20:36.279Z,46.46
2022-08-31T00:22:40.916Z,46.53
2022-08-31T00:24:45.425Z,46.23
2022-08-31T00:26:49.951Z,46.58
2022-08-31T00:28:54.467Z,46.54
2022-08-31T00:30:59.010Z,46.58
2022-08-31T00:33:03.487Z,46.62
2022-08-31T00:35:08.125Z,46.58
2022-08-31T00:37:12.643Z,46.67
2022-08-31T00:39:17.491Z,46.65
2022-08-31T00:41:22.101Z,46.73
2022-08-31T00:43:26.740Z,46.76
2022-08-31T00:45:31.630Z,46.76
2022-08-31T00:47:36.190Z,46.75
2022-08-31T00:49:40.799Z,46.78
2022-08-31T00:51:45.369Z,46.93
2022-08-31T00:53:52.906Z,46.87
2022-08-31T00:55:57.535Z,46.9
2022-08-31T00:58:02.105Z,46.69
2022-08-31T01:00:07.209Z,46.82
2022-08-31T01:02:12.075Z,46.81
2022-08-31T01:04:16.720Z,46.74
2022-08-31T01:06:21.192Z,46.83
2022-08-31T01:08:32.831Z,46.81
2022-08-31T01:10:37.325Z,46.84
2022-08-31T01:12:42.731Z,46.83
2022-08-31T01:14:49.985Z,46.95
2022-08-31T01:16:54.607Z,46.93
2022-08-31T01:18:59.174Z,46.85
2022-08-31T01:21:03.734Z,46.83
2022-08-31T01:23:09.316Z,46.77
2022-08-31T01:25:13.875Z,46.79
2022-08-31T01:27:18.497Z,46.63
2022-08-31T01:29:23.070Z,46.83
2022-08-31T01:31:27.764Z,46.83
2022-08-31T01:33:32.479Z,46.85
2022-08-31T01:35:37.097Z,46.92
2022-08-31T01:37:41.797Z,46.94
2022-08-31T01:39:46.445Z,46.89
2022-08-31T01:41:51.061Z,46.94
2022-08-31T01:43:55.785Z,47.07
2022-08-31T01:46:00.390Z,47.05
2022-08-31T01:48:04.961Z,47.04
2022-08-31T01:50:09.531Z,47.09
2022-08-31T01:52:14.107Z,47.04
2022-08-31T01:54:18.683Z,47.21
2022-08-31T01:56:23.302Z,47.22
2022-08-31T01:58:28.030Z,47.29
2022-08-31T02:00:32.812Z,47.22
2022-08-31T02:02:37.708Z,47.31
2022-08-31T02:04:42.387Z,47.19
2022-08-31T02:06:47.023Z,47.04
2022-08-31T02:08:51.648Z,46.89
2022-08-31T02:10:56.365Z,47.19
2022-08-31T02:13:00.943Z,47.29
2022-08-31T02:15:05.598Z,47.31
2022-08-31T02:17:10.335Z,47.32
2022-08-31T02:19:14.959Z,47.32
2022-08-31T02:21:19.553Z,47.33
2022-08-31T02:23:24.197Z,47.5
2022-08-31T02:25:28.661Z,47.63
2022-08-31T02:27:33.341Z,47.59
2022-08-31T02:29:37.921Z,47.58
2022-08-31T02:31:42.703Z,47.54
2022-08-31T02:33:47.258Z,47.59
2022-08-31T02:35:56.120Z,47.6
2022-08-31T02:38:01.128Z,47.55
2022-08-31T02:40:12.123Z,47.51
2022-08-31T02:42:19.439Z,47.38
2022-08-31T02:44:23.958Z,47.55
2022-08-31T02:46:28.855Z,47.45
2022-08-31T02:48:33.469Z,47.59
2022-08-31T02:50:40.183Z,47.6
2022-08-31T02:52:44.756Z,47.48
2022-08-31T02:54:49.336Z,47.6
2022-08-31T02:56:53.900Z,47.53
2022-08-31T02:58:58.467Z,47.21
2022-08-31T03:01:03.048Z,47.54
2022-08-31T03:03:08.080Z,47.38
2022-08-31T03:05:12.681Z,47.42
2022-08-31T03:07:19.908Z,47.34
2022-08-31T03:09:24.459Z,47.16
2022-08-31T03:11:29.007Z,47
2022-08-31T03:13:33.627Z,47.03
2022-08-31T03:15:38.548Z,46.99
2022-08-31T03:17:43.175Z,47.08
2022-08-31T03:19:47.893Z,47.23
2022-08-31T03:21:58.237Z,47.25
2022-08-31T03:24:02.879Z,47.24
2022-08-31T03:26:07.465Z,47.13
2022-08-31T03:28:12.073Z,46.77
2022-08-31T03:30:16.637Z,47.05
2022-08-31T03:32:21.209Z,47.09
2022-08-31T03:34:25.719Z,47.24
2022-08-31T03:36:30.290Z,47.2
2022-08-31T03:38:35.015Z,47.13
2022-08-31T03:40:40.030Z,47.31
2022-08-31T03:42:44.718Z,47.29
2022-08-31T03:44:49.294Z,47.01
2022-08-31T03:46:53.864Z,47.18
2022-08-31T03:48:58.422Z,46.75
2022-08-31T03:51:02.996Z,47.02
2022-08-31T03:53:07.572Z,47.04
2022-08-31T03:55:12.169Z,47.1
2022-08-31T03:57:16.795Z,47.2
2022-08-31T03:59:21.426Z,47.06
2022-08-31T04:01:26.240Z,47.11
2022-08-31T04:03:30.876Z,47.06
2022-08-31T04:05:35.490Z,46.82
2022-08-31T04:07:44.885Z,47.07
2022-08-31T04:09:49.488Z,47.13
2022-08-31T04:11:54.278Z,47.3
2022-08-31T04:13:58.854Z,47.19
2022-08-31T04:16:03.598Z,47.1
2022-08-31T04:18:08.233Z,47.26
2022-08-31T04:20:12.807Z,47.31
2022-08-31T04:22:17.373Z,47.25
2022-08-31T04:24:21.967Z,47.17
2022-08-31T04:26:26.563Z,47.05
2022-08-31T04:28:31.133Z,47.05
2022-08-31T04:30:35.739Z,46.9
2022-08-31T04:32:40.372Z,46.94
2022-08-31T04:34:44.960Z,47.01
2022-08-31T04:36:50.173Z,46.93
2022-08-31T04:38:54.954Z,46.85
2022-08-31T04:40:59.881Z,46.72
2022-08-31T04:43:04.480Z,46.55
2022-08-31T04:45:09.091Z,46.52
2022-08-31T04:47:13.630Z,46.52
2022-08-31T04:49:19.415Z,46.47
2022-08-31T04:51:24.006Z,46.49
2022-08-31T04:53:28.544Z,46.53
2022-08-31T04:55:33.216Z,46.53
2022-08-31T04:57:37.840Z,46.55
2022-08-31T04:59:42.362Z,46.54
2022-08-31T05:01:47.422Z,46.49
2022-08-31T05:03:52.126Z,46.6
2022-08-31T05:05:56.709Z,46.59
2022-08-31T05:08:01.251Z,46.62
2022-08-31T05:10:05.900Z,46.55
2022-08-31T05:12:10.471Z,46.59
2022-08-31T05:14:15.143Z,46.53
2022-08-31T05:16:20.027Z,46.49
2022-08-31T05:18:24.564Z,46.48
2022-08-31T05:20:29.164Z,46.47
2022-08-31T05:22:33.827Z,46.47
2022-08-31T05:24:38.448Z,46.39
2022-08-31T05:26:44.279Z,46.35
2022-08-31T05:28:48.788Z,46.36
2022-08-31T05:30:53.602Z,46.38
2022-08-31T05:32:58.368Z,46.41
2022-08-31T05:35:03.209Z,46.42
2022-08-31T05:37:07.794Z,46.42
2022-08-31T05:39:12.438Z,46.45
2022-08-31T05:41:17.536Z,46.41
2022-08-31T05:43:22.539Z,46.35
2022-08-31T05:45:27.068Z,46.43
2022-08-31T05:47:31.753Z,46.4
2022-08-31T05:49:36.324Z,45.92
2022-08-31T05:51:41.922Z,45.96
2022-08-31T05:53:46.537Z,45.91
2022-08-31T05:55:51.148Z,45.97
2022-08-31T05:57:55.760Z,46.09
2022-08-31T06:00:00.790Z,46.16
2022-08-31T06:02:05.687Z,46.25
2022-08-31T06:04:10.294Z,46.26
2022-08-31T06:06:14.863Z,46.34
2022-08-31T06:08:28.184Z,46.26
2022-08-31T06:10:32.767Z,46.23
2022-08-31T06:12:37.283Z,46.2
2022-08-31T06:14:50.096Z,46.23
2022-08-31T06:16:57.316Z,46.33
2022-08-31T06:19:01.939Z,46.36
2022-08-31T06:21:06.662Z,46.39
2022-08-31T06:23:11.300Z,46.44
2022-08-31T06:25:16.041Z,46.43
2022-08-31T06:27:20.748Z,46.55
2022-08-31T06:29:25.300Z,46.8
2022-08-31T06:31:30.238Z,46.72
2022-08-31T06:33:34.863Z,46.65
2022-08-31T06:35:39.413Z,46.57
2022-08-31T06:37:44.031Z,46.47
2022-08-31T06:39:48.854Z,46.5
2022-08-31T06:41:53.364Z,46.45
2022-08-31T06:43:57.795Z,46.44
2022-08-31T06:46:02.831Z,46.37
2022-08-31T06:48:07.276Z,46.29
2022-08-31T06:50:11.845Z,46.18
2022-08-31T06:52:16.404Z,46.13
2022-08-31T06:54:32.066Z,46.03
2022-08-31T06:56:36.530Z,46.03
2022-08-31T06:58:41.071Z,46.04
2022-08-31T07:00:46.011Z,45.97
2022-08-31T07:02:59.782Z,46
2022-08-31T07:05:04.655Z,45.99
2022-08-31T07:07:09.527Z,45.96
2022-08-31T07:09:14.355Z,45.94
2022-08-31T07:11:19.207Z,45.98
2022-08-31T07:13:24.029Z,45.94
2022-08-31T07:15:28.925Z,46
2022-08-31T07:17:33.679Z,45.99
2022-08-31T07:19:46.166Z,46.08
2022-08-31T07:21:51.039Z,46.12
2022-08-31T07:23:55.913Z,46.03
2022-08-31T07:26:00.834Z,46.14
2022-08-31T07:28:06.807Z,46.11
2022-08-31T07:30:11.821Z,46.18
2022-08-31T07:32:16.644Z,46.3
2022-08-31T07:34:21.535Z,46.28
2022-08-31T07:36:26.513Z,46.24
2022-08-31T07:38:31.428Z,46.29
2022-08-31T07:40:37.222Z,46.27
2022-08-31T07:42:41.962Z,46.3
2022-08-31T07:44:55.503Z,46.3
2022-08-31T07:47:00.355Z,46.34
2022-08-31T07:49:05.489Z,46.35
2022-08-31T07:51:16.356Z,46.37
2022-08-31T07:53:24.761Z,46.38
2022-08-31T07:55:29.590Z,46.35
2022-08-31T07:57:34.355Z,46.35
2022-08-31T07:59:39.239Z,46.35
2022-08-31T08:01:44.133Z,46.36
2022-08-31T08:03:48.991Z,46.29
2022-08-31T08:05:54.342Z,46.33
2022-08-31T08:07:59.261Z,46.39
2022-08-31T08:10:04.017Z,46.44
2022-08-31T08:12:12.181Z,46.43
2022-08-31T08:14:19.616Z,46.45
2022-08-31T08:16:25.119Z,46.44
2022-08-31T08:18:30.041Z,46.42
2022-08-31T08:20:40.450Z,46.31
2022-08-31T08:22:57.069Z,46.36
2022-08-31T08:25:02.921Z,46.36
2022-08-31T08:27:07.964Z,46.31
2022-08-31T08:29:12.928Z,46.31
2022-08-31T08:31:18.055Z,46.27
2022-08-31T08:33:23.269Z,46.25
2022-08-31T08:35:28.130Z,46.17
2022-08-31T08:38:07.649Z,46.14
2022-08-31T08:40:12.812Z,46.15
2022-08-31T08:42:17.315Z,46.14
2022-08-31T08:44:21.934Z,46.18
2022-08-31T08:46:37.386Z,46.18
2022-08-31T08:48:44.675Z,46.09
2022-08-31T08:50:49.231Z,46.08
2022-08-31T08:52:53.787Z,46.19
2022-08-31T08:54:58.515Z,46.15
2022-08-31T08:57:03.778Z,46.12
2022-08-31T08:59:19.776Z,46.13
2022-08-31T09:01:25.019Z,46.14
2022-08-31T09:03:31.595Z,46.14
2022-08-31T09:05:38.815Z,46.15
2022-08-31T09:07:43.552Z,46.16
2022-08-31T09:09:48.263Z,46.19
2022-08-31T09:11:52.991Z,46.17
2022-08-31T09:13:57.821Z,46.18
2022-08-31T09:16:03.917Z,46.21
2022-08-31T09:18:08.713Z,46.22
2022-08-31T09:20:13.430Z,46.2
2022-08-31T09:22:18.031Z,46.2
2022-08-31T09:24:22.633Z,46.18
2022-08-31T09:26:27.248Z,46.17
2022-08-31T09:28:31.896Z,46.16
2022-08-31T09:30:36.680Z,46.14
2022-08-31T09:32:41.347Z,46.16
2022-08-31T09:34:46.203Z,46.15
2022-08-31T09:36:50.895Z,46.08
2022-08-31T09:38:55.576Z,46.05
2022-08-31T09:41:00.492Z,46.04
2022-08-31T09:43:07.573Z,46
2022-08-31T09:45:15.213Z,46
2022-08-31T09:47:19.825Z,45.96
2022-08-31T09:49:24.421Z,45.95
2022-08-31T09:51:29.048Z,45.9
2022-08-31T09:53:33.684Z,45.81
2022-08-31T09:55:38.314Z,45.71
2022-08-31T09:57:42.912Z,45.7
2022-08-31T09:59:47.777Z,45.79
2022-08-31T10:01:52.599Z,45.76
2022-08-31T10:03:57.296Z,45.67
2022-08-31T10:06:01.892Z,45.62
2022-08-31T10:08:06.669Z,45.62
2022-08-31T10:10:32.546Z,45.6
2022-08-31T10:12:37.348Z,45.63
2022-08-31T10:14:42.041Z,45.66
2022-08-31T10:16:46.741Z,46.04
2022-08-31T10:18:51.357Z,45.96
2022-08-31T10:20:56.104Z,45.76
2022-08-31T10:23:00.725Z,45.51
2022-08-31T10:25:05.453Z,45.53
2022-08-31T10:27:10.031Z,45.63
2022-08-31T10:29:24.836Z,45.94
2022-08-31T10:31:29.701Z,46.05
2022-08-31T10:33:34.342Z,45.96
2022-08-31T10:35:38.998Z,46.2
2022-08-31T10:37:43.753Z,45.61
2022-08-31T10:39:48.305Z,45.54
2022-08-31T10:41:52.915Z,45.79
2022-08-31T10:43:57.487Z,45.78
2022-08-31T10:46:02.390Z,45.96
2022-08-31T10:48:07.065Z,46.01
2022-08-31T10:50:11.672Z,46
2022-08-31T10:52:16.250Z,45.97
2022-08-31T10:54:20.782Z,46.07
2022-08-31T10:56:26.546Z,45.96
2022-08-31T10:58:31.330Z,45.97
2022-08-31T11:00:36.055Z,45.75
2022-08-31T11:02:40.677Z,45.38
2022-08-31T11:04:45.500Z,45.35
2022-08-31T11:06:50.169Z,45.29
2022-08-31T11:08:54.743Z,45.04
2022-08-31T11:10:59.299Z,44.97
2022-08-31T11:13:03.973Z,44.99
2022-08-31T11:15:08.559Z,45.06
2022-08-31T11:17:14.219Z,44.82
2022-08-31T11:19:19.028Z,44.84
2022-08-31T11:21:23.597Z,44.72
2022-08-31T11:23:28.265Z,44.61
2022-08-31T11:25:33.077Z,44.56
2022-08-31T11:27:37.723Z,44.57
2022-08-31T11:29:42.339Z,44.34
2022-08-31T11:31:47.136Z,44.24
2022-08-31T11:34:18.411Z,44.24
2022-08-31T11:36:23.023Z,44.46
2022-08-31T11:38:27.758Z,44.43
2022-08-31T11:40:32.589Z,44.32
2022-08-31T11:42:41.085Z,44.23
2022-08-31T11:44:45.828Z,44.22
2022-08-31T11:46:51.406Z,44.14
2022-08-31T11:48:56.607Z,44.1
2022-08-31T11:51:01.224Z,44.04
2022-08-31T11:53:05.778Z,43.95
2022-08-31T11:55:10.413Z,43.97
2022-08-31T11:57:15.088Z,43.92
2022-08-31T11:59:19.788Z,43.93
2022-08-31T12:01:24.637Z,43.82
2022-08-31T12:03:29.383Z,43.79
2022-08-31T12:05:34.242Z,43.65
2022-08-31T12:07:39.013Z,44.39
2022-08-31T12:09:43.826Z,44.13
2022-08-31T12:11:48.464Z,43.97
2022-08-31T12:13:53.189Z,44.03
2022-08-31T12:15:58.108Z,44.62
2022-08-31T12:18:03.154Z,45.27
2022-08-31T12:20:07.862Z,45.45
2022-08-31T12:22:12.487Z,44.22
2022-08-31T12:24:21.571Z,43.51
2022-08-31T12:26:26.265Z,43.1
2022-08-31T12:28:31.638Z,43.2
2022-08-31T12:30:36.407Z,42.74
2022-08-31T12:32:41.033Z,42.27
2022-08-31T12:34:45.630Z,42.28
2022-08-31T12:36:52.934Z,41.54
2022-08-31T12:38:57.545Z,41.29
2022-08-31T12:41:02.049Z,41.53
2022-08-31T12:43:06.592Z,41.49
2022-08-31T12:45:11.210Z,41.36
2022-08-31T12:47:15.843Z,41.05
2022-08-31T12:49:20.562Z,41.21
2022-08-31T12:51:25.291Z,41.36
2022-08-31T12:53:29.904Z,41.2
2022-08-31T12:55:34.626Z,41.02
2022-08-31T12:57:39.454Z,40.99
2022-08-31T13:00:04.426Z,40.93
2022-08-31T13:02:12.005Z,40.61
2022-08-31T13:04:16.974Z,40.56
2022-08-31T13:06:21.594Z,40.33
2022-08-31T13:08:26.195Z,40.13
2022-08-31T13:10:30.747Z,40.19
2022-08-31T13:12:35.361Z,39.92
2022-08-31T13:14:39.982Z,39.96
2022-08-31T13:16:44.900Z,39.89
2022-08-31T13:18:55.264Z,40.8
2022-08-31T13:20:59.857Z,40.76
2022-08-31T13:23:04.437Z,40.69
2022-08-31T13:25:09.109Z,40.33
2022-08-31T13:27:13.751Z,40.19
2022-08-31T13:29:18.324Z,40.42
2022-08-31T13:31:23.108Z,40.89
2022-08-31T13:33:27.725Z,41.04
2022-08-31T13:35:32.319Z,40.87
2022-08-31T13:37:36.905Z,40.79
2022-08-31T13:39:41.481Z,40.49
2022-08-31T13:41:46.106Z,40.57
2022-08-31T13:43:50.718Z,40.66
2022-08-31T13:45:55.583Z,41.15
2022-08-31T13:48:00.448Z,41.07
2022-08-31T13:50:05.195Z,40.77
2022-08-31T13:52:09.822Z,39.9
2022-08-31T13:54:14.440Z,39.57
2022-08-31T13:56:19.471Z,39.44
2022-08-31T13:58:24.097Z,39.36
2022-08-31T14:00:28.528Z,39.13
2022-08-31T14:02:39.804Z,38.84
2022-08-31T14:04:44.527Z,38.9
2022-08-31T14:06:48.971Z,38.42
2022-08-31T14:08:53.443Z,38.2
2022-08-31T14:10:58.076Z,37.96
2022-08-31T14:13:02.691Z,38.03
2022-08-31T14:15:07.294Z,37.84
2022-08-31T14:17:12.193Z,37.91
2022-08-31T14:19:16.830Z,37.66
2022-08-31T14:21:25.468Z,37.56
2022-08-31T14:23:30.199Z,37.54
2022-08-31T14:25:34.784Z,37.83
2022-08-31T14:27:39.441Z,37.55
2022-08-31T14:29:44.049Z,37.56
2022-08-31T14:31:48.689Z,37.85
2022-08-31T14:33:53.297Z,37.76
2022-08-31T14:35:58.894Z,37.9
2022-08-31T14:38:04.596Z,37.87
2022-08-31T14:40:10.670Z,38.04
2022-08-31T14:42:15.485Z,38.16
2022-08-31T14:44:20.198Z,38.16
2022-08-31T14:46:25.079Z,38.05
2022-08-31T14:48:29.767Z,38.01
2022-08-31T14:50:34.478Z,38.36
2022-08-31T14:52:39.080Z,38.26
2022-08-31T14:54:43.581Z,37.98
2022-08-31T14:56:48.303Z,37.98
2022-08-31T14:58:53.890Z,37.88
2022-08-31T15:00:59.749Z,38.15
2022-08-31T15:03:04.348Z,38.35
2022-08-31T15:05:08.973Z,38.41
2022-08-31T15:07:13.588Z,38.67
2022-08-31T15:09:18.200Z,38.72
2022-08-31T15:11:22.776Z,38.82
2022-08-31T15:13:34.428Z,38.77
2022-08-31T15:15:39.027Z,38.84
2022-08-31T15:17:43.646Z,38.91
2022-08-31T15:19:48.290Z,39.11
2022-08-31T15:22:04.271Z,39.07
2022-08-31T15:24:08.896Z,38.71
2022-08-31T15:26:13.729Z,38.7
2022-08-31T15:28:18.738Z,38.85
2022-08-31T15:30:23.477Z,38.61
2022-08-31T15:32:28.096Z,38.67
2022-08-31T15:34:32.717Z,38.5
2022-08-31T15:36:37.236Z,38.36
2022-08-31T15:38:45.398Z,38.34
2022-08-31T15:40:50.376Z,38.51
2022-08-31T15:42:55.125Z,38.84
2022-08-31T15:44:59.731Z,38.98
2022-08-31T15:47:04.301Z,39.03
2022-08-31T15:49:08.989Z,38.98
2022-08-31T15:51:13.666Z,38.73
2022-08-31T15:53:18.275Z,38.54
2022-08-31T15:55:23.039Z,38.59
2022-08-31T15:57:27.644Z,38.46
2022-08-31T15:59:32.250Z,38.44
2022-08-31T16:01:38.410Z,38.33
2022-08-31T16:03:43.273Z,38.45
2022-08-31T16:05:48.100Z,38.66
2022-08-31T16:07:52.871Z,38.85
2022-08-31T16:09:57.533Z,39
2022-08-31T16:12:02.046Z,39.24
2022-08-31T16:14:06.878Z,38.94
2022-08-31T16:16:11.714Z,39.63
2022-08-31T16:18:16.561Z,39.8
2022-08-31T16:20:21.152Z,40
2022-08-31T16:22:33.048Z,39.94
2022-08-31T16:24:37.835Z,39.82
2022-08-31T16:26:42.331Z,39.57
2022-08-31T16:28:46.926Z,39.4
2022-08-31T16:30:53.359Z,39.27
2022-08-31T16:32:57.987Z,39.25
2022-08-31T16:35:02.818Z,39.26
2022-08-31T16:37:07.442Z,39.24
2022-08-31T16:39:12.035Z,39.29
2022-08-31T16:41:16.791Z,39.26
2022-08-31T16:43:21.408Z,39.18
2022-08-31T16:45:26.389Z,39.4
2022-08-31T16:47:30.959Z,39.57
2022-08-31T16:49:35.703Z,39.31
2022-08-31T16:51:40.404Z,39.39
2022-08-31T16:53:44.985Z,39.33
2022-08-31T16:55:49.811Z,39.15
2022-08-31T16:57:54.403Z,40.03
2022-08-31T16:59:58.975Z,39.6
2022-08-31T17:02:03.839Z,39.52
2022-08-31T17:04:08.381Z,39.07
2022-08-31T17:06:13.060Z,39.2
2022-08-31T17:08:17.567Z,39.16
2022-08-31T17:10:22.308Z,39.06
2022-08-31T17:12:27.391Z,38.81
2022-08-31T17:14:31.990Z,39.45
2022-08-31T17:16:37.235Z,40.1
2022-08-31T17:18:42.661Z,39.87
2022-08-31T17:20:47.299Z,39.67
2022-08-31T17:22:52.084Z,39.47
2022-08-31T17:24:57.012Z,39.55
2022-08-31T17:27:01.846Z,39.5
2022-08-31T17:29:06.547Z,39.13
2022-08-31T17:31:11.210Z,39.34
2022-08-31T17:33:16.016Z,39.35
2022-08-31T17:35:21.249Z,39.1
2022-08-31T17:37:25.897Z,38.75
2022-08-31T17:39:30.489Z,39.24
2022-08-31T17:41:35.026Z,39.19
2022-08-31T17:43:39.589Z,38.68
2022-08-31T17:45:44.242Z,39.39
2022-08-31T17:47:48.950Z,39.68
2022-08-31T17:49:53.413Z,39.47
2022-08-31T17:51:59.661Z,38.97
2022-08-31T17:54:04.270Z,39.26
2022-08-31T17:56:08.834Z,38.43
2022-08-31T17:58:13.535Z,38.45
2022-08-31T18:00:18.207Z,38.77
2022-08-31T18:02:23.771Z,38.5
2022-08-31T18:04:28.766Z,40.02
2022-08-31T18:06:33.991Z,40.33
2022-08-31T18:08:38.569Z,40.52
2022-08-31T18:10:43.208Z,40.73
2022-08-31T18:12:48.021Z,40.75
2022-08-31T18:14:52.612Z,40.48
2022-08-31T18:16:57.465Z,40.25
2022-08-31T18:19:02.157Z,40.19
2022-08-31T18:21:06.803Z,40.71
2022-08-31T18:23:11.532Z,40.09
2022-08-31T18:25:16.117Z,39.78
2022-08-31T18:27:21.389Z,39.81
2022-08-31T18:29:27.459Z,39.8
2022-08-31T18:31:32.455Z,39.47
2022-08-31T18:33:37.918Z,39.63
2022-08-31T18:35:42.673Z,39.4
2022-08-31T18:37:47.359Z,39.14
2022-08-31T18:39:54.194Z,39.53
2022-08-31T18:41:58.859Z,39.71
2022-08-31T18:44:03.903Z,40.05
2022-08-31T18:46:08.847Z,39.98
2022-08-31T18:48:27.999Z,39.28
2022-08-31T18:50:37.798Z,39.81
2022-08-31T18:52:49.704Z,39.39
2022-08-31T18:54:54.666Z,39.67
2022-08-31T18:56:59.394Z,39.27
2022-08-31T18:59:04.298Z,39.41
2022-08-31T19:01:09.629Z,39.28
2022-08-31T19:03:14.411Z,39.56
2022-08-31T19:05:19.080Z,39.38
2022-08-31T19:07:23.809Z,39.42
2022-08-31T19:09:28.543Z,39.31
2022-08-31T19:11:34.585Z,39.35
2022-08-31T19:13:39.177Z,39.44
2022-08-31T19:15:43.827Z,39.61
2022-08-31T19:17:49.324Z,39.76
2022-08-31T19:19:54.287Z,39.93
2022-08-31T19:22:00.167Z,39.66
2022-08-31T19:24:08.480Z,40.06
2022-08-31T19:26:13.073Z,40.02
2022-08-31T19:28:17.849Z,39.26
2022-08-31T19:30:29.706Z,39.77
2022-08-31T19:32:35.653Z,39.78
2022-08-31T19:34:40.836Z,39.96
2022-08-31T19:36:45.620Z,40.13
2022-08-31T19:38:50.427Z,40.67
2022-08-31T19:40:55.543Z,40.28
2022-08-31T19:43:52.167Z,39.92
2022-08-31T19:46:10.775Z,39.47
2022-08-31T19:48:18.444Z,39.56
2022-08-31T19:50:23.069Z,39.86
2022-08-31T19:52:27.802Z,40.07
2022-08-31T19:54:33.480Z,40.36
2022-08-31T19:56:38.154Z,40.38
2022-08-31T19:58:42.892Z,40.47
2022-08-31T20:00:50.792Z,40.43
2022-08-31T20:02:55.723Z,40.65
2022-08-31T20:05:00.310Z,40.77
2022-08-31T20:07:05.876Z,40.83
2022-08-31T20:09:10.637Z,40.99
2022-08-31T20:11:22.599Z,40.83
2022-08-31T20:13:27.314Z,40.93
2022-08-31T20:15:31.988Z,41.53
2022-08-31T20:17:36.768Z,41.12
2022-08-31T20:19:41.347Z,41.31
2022-08-31T20:21:45.904Z,41.48
2022-08-31T20:23:50.606Z,41.52
2022-08-31T20:25:55.361Z,41.65
2022-08-31T20:28:01.347Z,41.72
2022-08-31T20:30:06.135Z,41.85
2022-08-31T20:32:11.586Z,41.88
2022-08-31T20:34:20.800Z,41.91
2022-08-31T20:36:25.388Z,42.12
2022-08-31T20:38:30.039Z,42.24
2022-08-31T20:40:34.980Z,42.37
2022-08-31T20:42:39.559Z,42.38
2022-08-31T20:44:50.051Z,42.53
2022-08-31T20:46:54.916Z,42.61
2022-08-31T20:48:59.470Z,43.05
2022-08-31T20:51:04.091Z,43.05
2022-08-31T20:53:08.595Z,42.92
2022-08-31T20:55:13.136Z,42.94
2022-08-31T20:57:17.777Z,43.17
2022-08-31T20:59:22.300Z,42.92
2022-08-31T21:01:27.025Z,43.01
2022-08-31T21:03:31.711Z,43.04
2022-08-31T21:05:40.765Z,43.02
2022-08-31T21:07:45.349Z,43.02
2022-08-31T21:09:50.010Z,43.13
2022-08-31T21:11:54.609Z,43.45
2022-08-31T21:13:59.682Z,43.65
2022-08-31T21:16:04.384Z,43.51
2022-08-31T21:18:09.127Z,43.55
2022-08-31T21:20:13.721Z,43.52
2022-08-31T21:22:18.335Z,43.45
2022-08-31T21:24:23.091Z,43.43
2022-08-31T21:26:27.698Z,43.32
2022-08-31T21:28:32.318Z,43.28
2022-08-31T21:30:36.944Z,43.26
2022-08-31T21:32:41.721Z,43.29
2022-08-31T21:34:46.263Z,43.26
2022-08-31T21:36:50.910Z,43.32
2022-08-31T21:38:55.514Z,43.26
2022-08-31T21:41:00.144Z,43.26
2022-08-31T21:43:04.777Z,43.29
2022-08-31T21:45:09.395Z,43.21
2022-08-31T21:47:13.960Z,43.14
2022-08-31T21:49:18.637Z,43.07
2022-08-31T21:51:23.465Z,43.02
2022-08-31T21:53:27.982Z,42.9
2022-08-31T21:55:32.603Z,42.84
2022-08-31T21:57:37.264Z,42.88
2022-08-31T21:59:41.949Z,42.88
2022-08-31T22:01:46.748Z,42.83
2022-08-31T22:03:51.400Z,42.76
2022-08-31T22:05:55.933Z,42.81
2022-08-31T22:08:00.530Z,42.74
2022-08-31T22:10:05.157Z,42.68
2022-08-31T22:12:09.892Z,42.68
2022-08-31T22:14:14.505Z,42.54
2022-08-31T22:16:21.935Z,42.43
2022-08-31T22:19:04.030Z,42.34
2022-08-31T22:21:09.457Z,42.3
2022-08-31T22:23:14.275Z,42.23
2022-08-31T22:25:21.023Z,42.22
2022-08-31T22:27:25.649Z,42.18
2022-08-31T22:29:30.811Z,42.21
2022-08-31T22:31:35.698Z,42.29
2022-08-31T22:33:49.203Z,42.38
2022-08-31T22:35:53.842Z,42.33
2022-08-31T22:37:58.349Z,42.48
2022-08-31T22:40:03.176Z,42.44
2022-08-31T22:42:07.765Z,42.34
2022-08-31T22:44:12.348Z,42.35
2022-08-31T22:46:17.239Z,42.3
2022-08-31T22:48:22.465Z,42.28
2022-08-31T22:50:27.091Z,42.21
2022-08-31T22:52:31.653Z,42.27
2022-08-31T22:54:36.164Z,42.27
2022-08-31T22:56:40.999Z,42.22
2022-08-31T22:58:45.566Z,42.26
2022-08-31T23:00:50.245Z,42.29
2022-08-31T23:02:54.755Z,42.31
2022-08-31T23:04:59.351Z,42.31
2022-08-31T23:07:03.875Z,42.29
2022-08-31T23:09:08.492Z,42.29
2022-08-31T23:11:13.011Z,42.27
2022-08-31T23:13:17.862Z,42.21
2022-08-31T23:15:22.453Z,42.2
2022-08-31T23:17:27.105Z,42.17
2022-08-31T23:19:31.683Z,42.2
2022-08-31T23:21:36.230Z,42.19
2022-08-31T23:23:40.877Z,42.17
2022-08-31T23:25:45.561Z,42.16
2022-08-31T23:27:50.519Z,42.08
2022-08-31T23:29:55.049Z,42.06
2022-08-31T23:31:59.669Z,42.03
2022-08-31T23:34:04.250Z,42.02
2022-08-31T23:36:08.910Z,42.1
2022-08-31T23:38:13.634Z,42.21
2022-08-31T23:40:18.640Z,42.2
2022-08-31T23:42:23.255Z,42.19
2022-08-31T23:44:27.771Z,42.27
2022-08-31T23:46:32.662Z,42.28
2022-08-31T23:48:37.180Z,42.28
2022-08-31T23:50:41.710Z,42.4
2022-08-31T23:52:46.298Z,42.54
2022-08-31T23:54:50.913Z,42.52
2022-08-31T23:56:55.489Z,42.59
2022-08-31T23:59:00.107Z,42.5
